Upstream stations:
Downstream station:
SHEF ID: OLBO2 North Canadian River blw Lk Over
STATION TYPE:
Regulating: Stage = 24.00, Flow = 9206
PRECIP STAGE RIV-FLOW WTR-TEMP DIS-OXY CONDUCT BAT-LOAD
in ft cfs F mg/l umho/cm volt
Ccp-Rev Ccp-Rev Ccp-Rev Ccp-Rev Ccp-Rev Ccp-Rev Ccp-Rev
(US/Central)
03/05 00:00 ---- 3.75 13 50.99 9.46 ---- ----
03/05 01:00 ---- 3.76 13 50.95 9.40 ---- ----
03/05 02:00 ---- 3.76 13 50.97 9.23 ---- ----
03/05 03:00 ---- 3.73 12 51.08 9.18 ---- ----
03/05 04:00 ---- 3.74 12 51.19 9.17 ---- ----
03/05 05:00 ---- 3.73 12 51.22 9.02 ---- ----
03/05 06:00 ---- 3.68 9 51.30 9.24 ---- ----
03/05 07:00 ---- 3.70 10 51.49 9.13 ---- ----
03/05 08:00 ---- 3.70 10 51.87 9.44 ---- ----
03/05 09:00 ---- 3.74 12 52.56 10.12 ---- ----
03/05 10:00 ---- 3.70 10 53.92 11.51 ---- ----
03/05 11:00 ---- 3.69 10 56.10 12.88 ---- ----
03/05 12:00 ---- 3.73 12 58.77 13.88 ---- ----
03/05 13:00 ---- 3.68 9 61.00 14.50 ---- ----
03/05 14:00 ---- 3.75 13 62.64 14.69 ---- ----
03/05 15:00 ---- 3.75 13 63.23 14.84 ---- ----
03/05 16:00 ---- 3.74 12 62.82 14.57 ---- ----
03/05 17:00 ---- 3.76 13 61.23 13.64 ---- ----
03/05 18:00 ---- 3.74 12 59.27 12.27 ---- ----
03/05 19:00 ---- 3.75 13 57.85 11.35 ---- ----
03/05 20:00 ---- 3.73 12 56.41 10.40 ---- ----
03/05 21:00 ---- 3.71 11 54.95 9.57 ---- ----
03/05 22:00 ---- 3.73 12 53.58 9.01 ---- ----
03/05 23:00 ---- 3.74 12 52.43 8.82 ---- ----